createdAt,value
2019-01-23T00:05:02.778Z,46.58
2019-01-23T00:10:12.325Z,47.49
2019-01-23T00:15:21.518Z,44.54
2019-01-23T00:20:30.981Z,42.84
2019-01-23T00:25:40.303Z,46.64
2019-01-23T00:30:49.853Z,46.17
2019-01-23T00:35:59.099Z,46.22
2019-01-23T00:41:08.595Z,46.67
2019-01-23T00:46:17.902Z,47.57
2019-01-23T00:51:27.362Z,48.31
2019-01-23T00:56:36.675Z,48.79
2019-01-23T01:01:46.170Z,51.32
2019-01-23T01:06:55.734Z,51.66
2019-01-23T01:12:05.239Z,56.39
2019-01-23T01:17:14.534Z,48.49
2019-01-23T01:22:23.858Z,56.47
2019-01-23T01:27:33.034Z,53.45
2019-01-23T01:32:42.505Z,50.89
2019-01-23T01:37:51.750Z,58.01
2019-01-23T01:43:01.266Z,55.68
2019-01-23T01:48:10.871Z,57.24
2019-01-23T01:53:20.121Z,56.76
2019-01-23T01:58:28.213Z,58.81
2019-01-23T02:03:37.447Z,56.30
2019-01-23T02:08:46.597Z,59.25
2019-01-23T02:13:55.781Z,60.41
2019-01-23T02:19:04.884Z,64.31
2019-01-23T02:24:14.153Z,59.83
2019-01-23T02:29:23.329Z,57.36
2019-01-23T02:34:32.492Z,60.67
2019-01-23T02:39:40.169Z,59.06
2019-01-23T02:44:49.397Z,63.84
2019-01-23T02:49:58.585Z,61.73
2019-01-23T02:55:07.822Z,61.63
2019-01-23T03:00:16.896Z,61.90
2019-01-23T03:05:26.129Z,62.35
2019-01-23T03:10:35.281Z,66.62
2019-01-23T03:15:44.488Z,60.83
2019-01-23T03:20:53.644Z,65.38
2019-01-23T03:26:02.948Z,56.52
2019-01-23T03:31:12.350Z,61.81
2019-01-23T03:36:21.676Z,69.38
2019-01-23T03:41:30.762Z,64.84
2019-01-23T03:46:39.989Z,62.17
2019-01-23T03:51:49.142Z,64.50
2019-01-23T03:56:58.381Z,62.10
2019-01-23T04:02:07.480Z,61.34
2019-01-23T04:07:16.756Z,63.98
2019-01-23T04:12:25.888Z,62.15
2019-01-23T04:17:35.408Z,70.51
2019-01-23T04:22:44.562Z,66.73
2019-01-23T04:27:53.740Z,67.91
2019-01-23T04:33:02.840Z,68.96
2019-01-23T04:38:12.321Z,69.79
2019-01-23T04:43:21.428Z,68.02
2019-01-23T04:48:30.727Z,69.22
2019-01-23T04:53:39.897Z,72.45
2019-01-23T04:58:49.161Z,69.00
2019-01-23T05:03:58.238Z,71.36
2019-01-23T05:09:07.493Z,72.57
2019-01-23T05:14:16.633Z,74.41
2019-01-23T05:19:25.792Z,70.68
2019-01-23T05:24:34.882Z,72.66
2019-01-23T05:29:44.137Z,78.27
2019-01-23T05:34:53.263Z,77.07
2019-01-23T05:40:02.561Z,68.41
2019-01-23T05:45:11.633Z,73.75
2019-01-23T05:50:21.205Z,67.29
2019-01-23T05:55:30.273Z,74.18
2019-01-23T06:00:38.052Z,72.71
2019-01-23T06:05:47.146Z,68.14
2019-01-23T06:10:56.352Z,72.10
2019-01-23T06:16:05.428Z,72.82
2019-01-23T06:21:14.814Z,68.98
2019-01-23T06:26:23.926Z,74.69
2019-01-23T06:31:33.284Z,67.30
2019-01-23T06:36:42.347Z,76.92
2019-01-23T06:41:51.585Z,65.87
2019-01-23T06:47:00.760Z,70.20
2019-01-23T06:52:09.984Z,72.79
2019-01-23T06:57:19.285Z,75.88
2019-01-23T07:02:28.758Z,73.49
2019-01-23T07:07:38.067Z,69.26
2019-01-23T07:12:47.304Z,67.46
2019-01-23T07:17:56.441Z,72.21
2019-01-23T07:23:05.737Z,72.30
2019-01-23T07:28:14.801Z,70.28
2019-01-23T07:33:24.050Z,66.76
2019-01-23T07:38:33.128Z,70.30
2019-01-23T07:43:42.369Z,71.85
2019-01-23T07:48:51.446Z,73.84
2019-01-23T07:54:00.657Z,62.96
2019-01-23T07:59:09.960Z,72.04
2019-01-23T08:04:19.026Z,70.67
2019-01-23T08:09:28.296Z,66.44
2019-01-23T08:14:37.425Z,63.61
2019-01-23T08:19:46.607Z,66.55
2019-01-23T08:24:55.785Z,64.22
2019-01-23T08:30:06.273Z,62.26
2019-01-23T08:35:09.825Z,65.45
2019-01-23T08:40:09.254Z,68.25
2019-01-23T08:45:18.469Z,66.54
2019-01-23T08:50:27.661Z,65.92
2019-01-23T08:55:36.861Z,62.91
2019-01-23T09:00:46.244Z,62.86
2019-01-23T09:05:55.302Z,65.61
2019-01-23T09:11:04.409Z,60.14
2019-01-23T09:16:13.706Z,60.20
2019-01-23T09:21:22.886Z,57.78
2019-01-23T09:26:32.065Z,59.26
2019-01-23T09:31:41.498Z,65.86
2019-01-23T09:36:50.993Z,62.91
2019-01-23T09:42:00.085Z,63.03
2019-01-23T09:47:09.321Z,62.56
2019-01-23T09:52:18.472Z,66.53
2019-01-23T09:57:27.725Z,69.16
2019-01-23T10:02:36.881Z,67.63
2019-01-23T10:07:45.026Z,66.66
2019-01-23T10:12:57.196Z,64.06
2019-01-23T10:18:00.344Z,76.75
2019-01-23T10:22:59.429Z,70.08
2019-01-23T10:28:09.032Z,70.38
2019-01-23T10:33:21.182Z,67.23
2019-01-23T10:38:20.859Z,70.21
2019-01-23T10:43:29.010Z,71.00
2019-01-23T10:48:38.272Z,74.42
2019-01-23T10:53:47.358Z,68.51
2019-01-23T10:58:56.598Z,67.91
2019-01-23T11:04:05.900Z,70.92
2019-01-23T11:09:15.173Z,66.65
2019-01-23T11:14:24.337Z,68.09
2019-01-23T11:19:33.577Z,67.33
2019-01-23T11:24:42.672Z,72.10
2019-01-23T11:29:51.938Z,77.22
2019-01-23T11:35:01.153Z,66.24
2019-01-23T11:40:10.426Z,74.07
2019-01-23T11:45:20.742Z,66.68
2019-01-23T11:50:22.962Z,70.45
2019-01-23T11:55:28.329Z,70.95
2019-01-23T12:00:37.554Z,68.44
2019-01-23T12:05:46.752Z,70.38
2019-01-23T12:10:57.894Z,80.16
2019-01-23T12:16:05.029Z,69.94
2019-01-23T12:21:14.608Z,64.95
2019-01-23T12:26:23.794Z,65.93
2019-01-23T12:31:35.172Z,60.75
2019-01-23T12:36:41.613Z,71.14
2019-01-23T12:41:50.825Z,72.80
2019-01-23T12:46:59.937Z,69.87
2019-01-23T12:52:09.211Z,72.48
2019-01-23T12:57:18.304Z,84.52
2019-01-23T13:02:27.567Z,73.95
2019-01-23T13:07:36.630Z,75.07
2019-01-23T13:12:45.864Z,73.42
2019-01-23T13:17:54.966Z,70.16
2019-01-23T13:23:04.109Z,72.20
2019-01-23T13:28:13.269Z,65.79
2019-01-23T13:33:22.795Z,78.78
2019-01-23T13:38:31.954Z,70.57
2019-01-23T13:43:41.162Z,71.28
2019-01-23T13:48:50.269Z,69.68
2019-01-23T13:53:59.621Z,75.94
2019-01-23T13:59:10.364Z,73.47
2019-01-23T14:04:09.663Z,70.25
2019-01-23T14:09:18.732Z,68.46
2019-01-23T14:14:27.984Z,73.47
2019-01-23T14:19:37.133Z,71.83
2019-01-23T14:24:46.413Z,66.61
2019-01-23T14:29:55.582Z,69.41
2019-01-23T14:35:04.946Z,65.51
2019-01-23T14:40:14.345Z,67.32
2019-01-23T14:45:23.698Z,68.83
2019-01-23T14:50:32.857Z,62.26
2019-01-23T14:55:42.197Z,66.34
2019-01-23T15:00:54.214Z,72.13
2019-01-23T15:06:06.857Z,67.03
2019-01-23T15:10:55.885Z,71.18
2019-01-23T15:16:05.096Z,69.54
2019-01-23T15:21:14.193Z,71.16
2019-01-23T15:26:23.360Z,79.18
2019-01-23T15:31:32.436Z,71.15
2019-01-23T15:36:42.081Z,74.61
2019-01-23T15:41:51.160Z,71.07
2019-01-23T15:47:00.412Z,76.45
2019-01-23T15:52:09.481Z,72.05
2019-01-23T15:57:18.821Z,75.81
2019-01-23T16:02:28.033Z,72.84
2019-01-23T16:07:37.252Z,73.08
2019-01-23T16:12:46.317Z,78.49
2019-01-23T16:17:57.332Z,78.52
2019-01-23T16:23:04.317Z,75.14
2019-01-23T16:28:14.171Z,76.32
2019-01-23T16:33:23.393Z,76.99
2019-01-23T16:38:32.753Z,83.75
2019-01-23T16:43:42.295Z,75.13
2019-01-23T16:48:50.753Z,80.58
2019-01-23T16:53:59.837Z,77.97
2019-01-23T16:59:09.029Z,80.71
2019-01-23T17:04:18.211Z,81.99
2019-01-23T17:09:27.804Z,81.90
2019-01-23T17:14:36.826Z,82.52
2019-01-23T17:19:46.169Z,82.52
2019-01-23T17:24:55.269Z,87.63
2019-01-23T17:30:04.515Z,82.60
2019-01-23T17:35:13.622Z,86.92
2019-01-23T17:40:22.888Z,95.21
2019-01-23T17:45:31.941Z,92.42
2019-01-23T17:50:41.184Z,92.49
2019-01-23T17:55:50.293Z,90.00
2019-01-23T18:00:59.598Z,93.89
2019-01-23T18:06:08.696Z,93.51
2019-01-23T18:11:17.914Z,99.29
2019-01-23T18:16:27.009Z,93.05
2019-01-23T18:21:36.581Z,97.17
2019-01-23T18:26:45.734Z,96.67
2019-01-23T18:31:54.945Z,95.62
2019-01-23T18:37:04.227Z,99.66
2019-01-23T18:42:13.397Z,101.48
2019-01-23T18:47:22.466Z,100.38
2019-01-23T18:52:31.652Z,105.40
2019-01-23T18:57:40.741Z,103.44
2019-01-23T19:02:49.989Z,102.68
2019-01-23T19:07:59.073Z,103.55
2019-01-23T19:13:08.328Z,107.72
2019-01-23T19:18:17.533Z,105.83
2019-01-23T19:23:26.805Z,101.95
2019-01-23T19:28:35.920Z,105.96
2019-01-23T19:33:45.209Z,102.24
2019-01-23T19:38:54.283Z,108.73
2019-01-23T19:44:03.851Z,109.64
2019-01-23T19:49:13.089Z,112.39
2019-01-23T19:54:22.587Z,110.32
2019-01-23T19:59:31.765Z,108.80
2019-01-23T20:04:40.964Z,114.31
2019-01-23T20:09:50.125Z,111.75
2019-01-23T20:14:59.565Z,117.35
2019-01-23T20:20:08.674Z,111.43
2019-01-23T20:25:17.983Z,118.51
2019-01-23T20:30:27.084Z,110.77
2019-01-23T20:35:36.477Z,112.48
2019-01-23T20:40:45.747Z,121.28
2019-01-23T20:45:54.984Z,117.40
2019-01-23T20:51:04.047Z,118.70
2019-01-23T20:56:13.272Z,135.81
2019-01-23T21:01:22.338Z,123.87
2019-01-23T21:06:31.642Z,124.42
2019-01-23T21:11:40.783Z,124.29
2019-01-23T21:16:50.041Z,131.40
2019-01-23T21:21:59.252Z,132.93
2019-01-23T21:27:08.387Z,137.48
2019-01-23T21:32:17.537Z,139.29
2019-01-23T21:37:26.930Z,138.01
2019-01-23T21:42:36.047Z,138.03
2019-01-23T21:47:45.252Z,139.99
2019-01-23T21:52:54.555Z,133.63
2019-01-23T21:58:03.897Z,140.17
2019-01-23T22:03:13.032Z,136.85
2019-01-23T22:08:22.269Z,146.78
2019-01-23T22:13:31.448Z,144.91
2019-01-23T22:18:40.721Z,139.20
2019-01-23T22:23:49.805Z,145.80
2019-01-23T22:28:59.003Z,138.19
2019-01-23T22:34:08.229Z,135.40
2019-01-23T22:39:17.338Z,137.08
2019-01-23T22:47:27.421Z,125.30
2019-01-23T22:52:25.380Z,130.00
2019-01-23T22:57:33.438Z,122.70
2019-01-23T23:02:41.448Z,123.24
2019-01-23T23:07:49.427Z,118.07
2019-01-23T23:12:57.485Z,109.26
2019-01-23T23:18:05.464Z,123.87
2019-01-23T23:23:13.489Z,121.69
2019-01-23T23:28:25.911Z,113.06
2019-01-23T23:33:28.861Z,122.92
2019-01-23T23:38:36.954Z,111.76
2019-01-23T23:43:45.187Z,119.70
2019-01-23T23:48:53.121Z,114.62
2019-01-23T23:54:01.205Z,110.57
2019-01-23T23:59:09.210Z,118.00
